Haddon Township, New Jersey
Current Conditions -  °F | °C
As of 2:54 AM on Monday 22 Dec 2014 (Local Time) from KPHL Reporting Station
Few Clouds Few Clouds  
Wind Chill: 29°   Ceiling: Unl
Heat Index: 29°   Visibility: 10mi
Dew Point: 21°   Wind: 3mph
Humidity: 72%   Direction: 330°NNW
Pressure: 30.35"   Gusts: NA
Location:  39.9079°N, 75.0838°W
Report Text: KPHL 220754Z 33003KT 10SM FEW030 FEW250 M02/M06 A3035 RMK AO2 SLP276 T10171061
Loading
Personal Weather Stations






























Interactive Weather Map New forecast layout! Learn more

10-Day Weather Forecast

Advertisements
Track Severe Weather on mobile